createdAt,value
2017-11-07T00:00:31.872Z,9.23
2017-11-07T00:02:59.337Z,7.30
2017-11-07T00:05:26.905Z,7.00
2017-11-07T00:07:54.376Z,8.87
2017-11-07T00:10:22.644Z,8.23
2017-11-07T00:12:50.868Z,9.10
2017-11-07T00:15:18.930Z,9.67
2017-11-07T00:17:46.455Z,7.60
2017-11-07T00:20:14.716Z,10.03
2017-11-07T00:22:43.604Z,7.97
2017-11-07T00:25:11.879Z,8.80
2017-11-07T00:27:39.350Z,9.73
2017-11-07T00:30:07.611Z,9.10
2017-11-07T00:32:35.076Z,11.50
2017-11-07T00:35:03.354Z,9.83
2017-11-07T00:37:31.672Z,9.17
2017-11-07T00:40:00.295Z,8.70
2017-11-07T00:42:27.760Z,8.20
2017-11-07T00:44:56.011Z,10.50
2017-11-07T00:47:23.494Z,8.53
2017-11-07T00:49:50.957Z,10.03
2017-11-07T00:52:20.270Z,7.37
2017-11-07T00:54:47.747Z,12.50
2017-11-07T00:57:15.723Z,9.07
2017-11-07T00:59:43.246Z,9.70
2017-11-07T01:02:11.516Z,9.07
2017-11-07T01:04:40.609Z,7.63
2017-11-07T01:07:08.886Z,8.87
2017-11-07T01:09:37.473Z,8.70
2017-11-07T01:12:05.704Z,7.17
2017-11-07T01:14:33.213Z,9.20
2017-11-07T01:17:01.454Z,6.50
2017-11-07T01:19:29.050Z,7.03
2017-11-07T01:21:56.579Z,7.47
2017-11-07T01:24:24.039Z,6.97
2017-11-07T01:26:52.321Z,8.87
2017-11-07T01:29:20.583Z,7.00
2017-11-07T01:31:48.049Z,8.07
2017-11-07T01:34:17.030Z,8.40
2017-11-07T01:36:44.517Z,8.30
2017-11-07T01:39:12.790Z,7.77
2017-11-07T01:41:41.049Z,10.27
2017-11-07T01:44:08.533Z,8.00
2017-11-07T01:46:36.072Z,7.13
2017-11-07T01:49:04.313Z,7.80
2017-11-07T01:51:31.848Z,8.13
2017-11-07T01:53:59.313Z,8.47
2017-11-07T01:56:26.916Z,6.90
2017-11-07T01:58:55.161Z,6.50
2017-11-07T02:01:22.623Z,9.67
2017-11-07T02:03:50.101Z,6.77
2017-11-07T02:06:18.368Z,6.73
2017-11-07T02:08:45.937Z,5.40
2017-11-07T02:11:14.219Z,6.30
2017-11-07T02:13:42.466Z,5.57
2017-11-07T02:16:09.939Z,5.47
2017-11-07T02:18:37.411Z,5.60
2017-11-07T02:21:05.649Z,6.30
2017-11-07T02:23:33.133Z,6.93
2017-11-07T02:26:01.364Z,7.93
2017-11-07T02:28:28.869Z,7.80
2017-11-07T02:30:57.362Z,8.63
2017-11-07T02:33:25.593Z,7.80
2017-11-07T02:35:53.076Z,6.60
2017-11-07T02:38:20.530Z,7.20
2017-11-07T02:40:47.987Z,7.23
2017-11-07T02:43:16.976Z,6.70
2017-11-07T02:45:44.451Z,10.27
2017-11-07T02:48:12.707Z,8.67
2017-11-07T02:50:40.638Z,8.30
2017-11-07T02:53:08.090Z,9.53
2017-11-07T02:55:35.599Z,7.80
2017-11-07T02:58:03.152Z,9.20
2017-11-07T03:00:30.603Z,8.50
2017-11-07T03:02:58.143Z,8.43
2017-11-07T03:05:25.615Z,7.30
2017-11-07T03:07:53.083Z,9.03
2017-11-07T03:10:22.056Z,7.97
2017-11-07T03:12:49.627Z,8.97
2017-11-07T03:15:17.104Z,7.47
2017-11-07T03:17:45.344Z,7.40
2017-11-07T03:20:12.819Z,6.50
2017-11-07T03:22:40.399Z,6.63
2017-11-07T03:25:08.660Z,6.77
2017-11-07T03:27:36.906Z,7.10
2017-11-07T03:30:04.380Z,7.63
2017-11-07T03:32:31.946Z,6.80
2017-11-07T03:34:59.411Z,6.20
2017-11-07T03:37:26.963Z,6.47
2017-11-07T03:39:55.191Z,6.70
2017-11-07T03:42:22.690Z,6.00
2017-11-07T03:44:50.583Z,6.07
2017-11-07T03:47:18.861Z,6.77
2017-11-07T03:49:47.100Z,6.83
2017-11-07T03:52:14.562Z,6.37
2017-11-07T03:54:42.019Z,6.90
2017-11-07T03:57:09.490Z,8.00
2017-11-07T03:59:37.731Z,8.60
2017-11-07T04:02:05.196Z,7.40
2017-11-07T04:04:32.711Z,6.33
2017-11-07T04:07:00.182Z,8.87
2017-11-07T04:09:27.678Z,8.50
2017-11-07T04:11:55.155Z,7.10
2017-11-07T04:14:23.380Z,8.40
2017-11-07T04:16:50.880Z,8.10
2017-11-07T04:19:19.640Z,8.13
2017-11-07T04:21:47.123Z,11.10
2017-11-07T04:24:14.587Z,6.23
2017-11-07T04:26:42.830Z,10.57
2017-11-07T04:29:10.291Z,7.90
2017-11-07T04:31:37.759Z,6.53
2017-11-07T04:34:05.277Z,6.73
2017-11-07T04:36:32.780Z,8.13
2017-11-07T04:39:00.236Z,6.60
2017-11-07T04:41:27.719Z,10.07
2017-11-07T04:43:55.964Z,7.13
2017-11-07T04:46:23.443Z,12.20
2017-11-07T04:48:51.680Z,8.20
2017-11-07T04:51:19.151Z,8.93
2017-11-07T04:53:46.707Z,7.30
2017-11-07T04:56:14.268Z,10.53
2017-11-07T04:58:41.735Z,6.90
2017-11-07T05:01:09.204Z,7.87
2017-11-07T05:03:37.448Z,6.90
2017-11-07T05:06:05.019Z,12.00
2017-11-07T05:08:34.001Z,8.40
2017-11-07T05:11:01.480Z,7.03
2017-11-07T05:13:30.711Z,9.73
2017-11-07T05:15:58.983Z,8.63
2017-11-07T05:18:26.480Z,9.03
2017-11-07T05:20:54.012Z,7.77
2017-11-07T05:23:21.571Z,9.90
2017-11-07T05:25:49.039Z,9.47
2017-11-07T05:28:16.530Z,9.43
2017-11-07T05:30:44.003Z,12.10
2017-11-07T05:33:12.264Z,10.67
2017-11-07T05:35:39.736Z,8.97
2017-11-07T05:38:07.980Z,11.87
2017-11-07T05:40:35.452Z,13.43
2017-11-07T05:43:02.919Z,9.60
2017-11-07T05:45:31.205Z,10.27
2017-11-07T05:47:59.462Z,11.87
2017-11-07T05:50:27.027Z,15.40
2017-11-07T05:52:56.284Z,15.40
2017-11-07T05:55:23.779Z,13.03
2017-11-07T05:57:51.250Z,11.23
2017-11-07T06:00:19.491Z,11.20
2017-11-07T06:02:46.972Z,14.30
2017-11-07T06:05:15.210Z,11.23
2017-11-07T06:07:42.803Z,11.77
2017-11-07T06:10:10.311Z,19.70
2017-11-07T06:12:38.892Z,10.70
2017-11-07T06:15:06.368Z,15.03
2017-11-07T06:17:33.840Z,11.50
2017-11-07T06:20:01.301Z,8.43
2017-11-07T06:22:28.776Z,10.27
2017-11-07T06:24:57.017Z,20.13
2017-11-07T06:27:24.473Z,11.47
2017-11-07T06:29:51.951Z,11.37
2017-11-07T06:32:19.454Z,11.97
2017-11-07T06:34:46.909Z,12.10
2017-11-07T06:37:14.383Z,12.37
2017-11-07T06:39:41.847Z,13.30
2017-11-07T06:42:09.317Z,14.10
2017-11-07T06:44:36.795Z,15.47
2017-11-07T06:47:04.250Z,19.07
2017-11-07T06:49:31.728Z,28.20
2017-11-07T06:51:59.993Z,20.10
2017-11-07T06:54:28.233Z,18.03
2017-11-07T06:56:56.267Z,13.97
2017-11-07T06:59:23.845Z,16.37
2017-11-07T07:01:51.307Z,21.00
2017-11-07T07:04:19.225Z,16.47
2017-11-07T07:06:47.496Z,19.57
2017-11-07T07:09:14.967Z,13.63
2017-11-07T07:11:43.209Z,15.27
2017-11-07T07:14:10.690Z,14.77
2017-11-07T07:16:39.482Z,15.03
2017-11-07T07:19:07.733Z,17.60
2017-11-07T07:21:35.230Z,16.80
2017-11-07T07:24:02.751Z,18.93
2017-11-07T07:26:30.220Z,15.27
2017-11-07T07:28:58.779Z,14.97
2017-11-07T07:31:26.246Z,17.70
2017-11-07T07:33:53.716Z,14.97
2017-11-07T07:36:21.192Z,18.43
2017-11-07T07:38:48.660Z,19.20
2017-11-07T07:41:16.131Z,19.27
2017-11-07T07:43:43.616Z,16.90
2017-11-07T07:46:11.091Z,15.80
2017-11-07T07:48:38.647Z,19.90
2017-11-07T07:51:06.209Z,15.33
2017-11-07T07:53:33.675Z,18.67
2017-11-07T07:56:01.158Z,18.10
2017-11-07T07:58:29.407Z,22.60
2017-11-07T08:00:57.679Z,24.47
2017-11-07T08:03:25.919Z,21.27
2017-11-07T08:05:53.388Z,21.93
2017-11-07T08:08:20.847Z,18.73
2017-11-07T08:10:48.419Z,24.80
2017-11-07T08:13:15.875Z,20.03
2017-11-07T08:15:43.339Z,21.80
2017-11-07T08:18:10.820Z,18.37
2017-11-07T08:20:39.072Z,30.83
2017-11-07T08:23:07.345Z,23.93
2017-11-07T08:25:34.819Z,26.33
2017-11-07T08:28:03.079Z,25.60
2017-11-07T08:30:30.535Z,26.30
2017-11-07T08:32:58.792Z,26.83
2017-11-07T08:35:26.253Z,23.10
2017-11-07T08:37:53.832Z,21.00
2017-11-07T08:40:22.084Z,18.90
2017-11-07T08:42:49.553Z,20.77
2017-11-07T08:45:17.018Z,24.43
2017-11-07T08:47:44.520Z,24.63
2017-11-07T08:50:12.028Z,23.43
2017-11-07T08:52:39.584Z,21.97
2017-11-07T08:55:07.163Z,24.30
2017-11-07T08:57:35.382Z,23.77
2017-11-07T09:00:02.875Z,20.83
2017-11-07T09:02:30.358Z,20.17
2017-11-07T09:04:58.613Z,19.47
2017-11-07T09:07:26.884Z,21.87
2017-11-07T09:09:54.470Z,20.90
2017-11-07T09:12:22.691Z,21.93
2017-11-07T09:14:50.182Z,19.03
2017-11-07T09:17:18.451Z,20.60
2017-11-07T09:19:45.912Z,22.20
2017-11-07T09:22:14.143Z,21.33
2017-11-07T09:24:41.624Z,19.60
2017-11-07T09:27:09.104Z,19.33
2017-11-07T09:29:36.672Z,21.40
2017-11-07T09:32:04.932Z,21.60
2017-11-07T09:34:33.243Z,19.83
2017-11-07T09:37:00.702Z,19.53
2017-11-07T09:39:28.163Z,20.80
2017-11-07T09:41:55.631Z,19.63
2017-11-07T09:44:23.135Z,21.00
2017-11-07T09:46:50.619Z,19.67
2017-11-07T09:49:19.375Z,19.93
2017-11-07T09:51:46.844Z,18.93
2017-11-07T09:54:14.327Z,20.10
2017-11-07T09:56:42.571Z,23.67
2017-11-07T09:59:10.027Z,22.70
2017-11-07T10:01:38.031Z,22.73
2017-11-07T10:04:05.504Z,19.33
2017-11-07T10:06:32.987Z,21.70
2017-11-07T10:09:00.464Z,20.43
2017-11-07T10:11:29.442Z,21.50
2017-11-07T10:13:56.895Z,21.43
2017-11-07T10:16:24.731Z,22.23
2017-11-07T10:18:52.207Z,21.70
2017-11-07T10:21:19.676Z,21.97
2017-11-07T10:23:47.247Z,17.93
2017-11-07T10:26:14.712Z,21.40
2017-11-07T10:28:42.167Z,21.30
2017-11-07T10:31:09.636Z,20.03
2017-11-07T10:33:37.875Z,19.70
2017-11-07T10:36:05.347Z,19.40
2017-11-07T10:38:33.619Z,18.60
2017-11-07T10:41:02.026Z,16.60
2017-11-07T10:43:30.349Z,15.27
2017-11-07T10:45:57.839Z,15.90
2017-11-07T10:48:25.311Z,14.97
2017-11-07T10:50:53.548Z,14.40
2017-11-07T10:53:21.035Z,14.97
2017-11-07T10:55:48.503Z,16.23
2017-11-07T10:58:16.743Z,15.10
2017-11-07T11:00:44.232Z,15.47
2017-11-07T11:03:12.492Z,15.10
2017-11-07T11:05:39.963Z,15.90
2017-11-07T11:08:08.215Z,15.97
2017-11-07T11:10:35.708Z,15.63
2017-11-07T11:13:03.968Z,15.03
2017-11-07T11:15:31.555Z,15.63
2017-11-07T11:17:59.012Z,15.43
2017-11-07T11:20:26.471Z,15.13
2017-11-07T11:22:53.960Z,14.63
2017-11-07T11:25:21.444Z,15.30
2017-11-07T11:27:48.911Z,14.53
2017-11-07T11:30:17.182Z,16.13
2017-11-07T11:32:45.411Z,12.47
2017-11-07T11:35:12.900Z,13.73
2017-11-07T11:37:40.368Z,11.70
2017-11-07T11:40:07.827Z,12.27
2017-11-07T11:42:35.292Z,11.93
2017-11-07T11:45:03.543Z,11.77
2017-11-07T11:47:31.010Z,11.90
2017-11-07T11:49:59.237Z,10.70
2017-11-07T11:52:26.725Z,10.00
2017-11-07T11:54:54.186Z,9.10
2017-11-07T11:57:22.371Z,8.47
2017-11-07T11:59:49.848Z,9.70
2017-11-07T12:02:18.077Z,10.13
2017-11-07T12:04:45.570Z,8.63
2017-11-07T12:07:13.124Z,8.63
2017-11-07T12:09:41.404Z,9.53
2017-11-07T12:12:08.880Z,9.77
2017-11-07T12:14:37.128Z,9.00
2017-11-07T12:17:05.416Z,9.23
2017-11-07T12:19:33.687Z,10.20
2017-11-07T12:22:01.167Z,8.90
2017-11-07T12:24:29.412Z,9.73
2017-11-07T12:26:56.894Z,9.50
2017-11-07T12:29:25.124Z,9.10
2017-11-07T12:31:52.587Z,8.43
2017-11-07T12:34:20.052Z,8.90
2017-11-07T12:36:47.624Z,9.00
2017-11-07T12:39:15.707Z,10.10
2017-11-07T12:41:43.936Z,9.33
2017-11-07T12:44:11.416Z,10.03
2017-11-07T12:46:38.876Z,9.47
2017-11-07T12:49:07.119Z,9.37
2017-11-07T12:51:57.080Z,8.93
2017-11-07T12:54:24.590Z,9.90
2017-11-07T12:56:52.060Z,10.73
2017-11-07T12:59:20.315Z,10.23
2017-11-07T13:01:47.784Z,10.37
2017-11-07T13:04:15.336Z,11.60
2017-11-07T13:06:42.908Z,10.40
2017-11-07T13:09:11.131Z,10.87
2017-11-07T13:11:39.123Z,10.10
2017-11-07T13:14:06.624Z,10.07
2017-11-07T13:16:34.179Z,11.27
2017-11-07T13:19:02.440Z,10.00
2017-11-07T13:21:29.919Z,10.40
2017-11-07T13:23:58.161Z,10.13
2017-11-07T13:26:25.732Z,11.53
2017-11-07T13:28:53.293Z,11.20
2017-11-07T13:31:22.099Z,11.43
2017-11-07T13:33:50.353Z,10.03
2017-11-07T13:36:18.687Z,9.90
2017-11-07T13:38:46.160Z,10.90
2017-11-07T13:41:14.448Z,10.50
2017-11-07T13:43:41.932Z,8.33
2017-11-07T13:46:10.162Z,9.40
2017-11-07T13:48:37.648Z,10.57
2017-11-07T13:51:05.135Z,8.43
2017-11-07T13:53:33.371Z,8.83
2017-11-07T13:56:00.839Z,9.87
2017-11-07T13:58:28.391Z,9.87
2017-11-07T14:00:55.955Z,9.73
2017-11-07T14:03:23.512Z,9.80
2017-11-07T14:05:50.989Z,8.57
2017-11-07T14:08:19.244Z,6.87
2017-11-07T14:10:46.812Z,7.93
2017-11-07T14:13:14.283Z,7.47
2017-11-07T14:15:42.508Z,8.80
2017-11-07T14:18:09.992Z,9.20
2017-11-07T14:20:37.596Z,8.60
2017-11-07T14:23:05.072Z,8.87
2017-11-07T14:25:32.539Z,7.23
2017-11-07T14:28:00.060Z,8.30
2017-11-07T14:30:27.511Z,9.73
2017-11-07T14:32:55.036Z,8.90
2017-11-07T14:35:22.593Z,9.10
2017-11-07T14:37:50.157Z,8.27
2017-11-07T14:40:18.920Z,8.53
2017-11-07T14:42:46.396Z,9.83
2017-11-07T14:45:13.872Z,9.33
2017-11-07T14:47:42.100Z,9.50
2017-11-07T14:50:09.592Z,11.00
2017-11-07T14:52:37.157Z,10.07
2017-11-07T14:55:04.667Z,9.43
2017-11-07T14:57:32.159Z,11.27
2017-11-07T14:59:59.722Z,9.33
2017-11-07T15:02:27.184Z,11.67
2017-11-07T15:04:55.425Z,10.73
2017-11-07T15:07:22.908Z,11.00
2017-11-07T15:09:51.148Z,10.73
2017-11-07T15:12:18.646Z,10.80
2017-11-07T15:14:46.106Z,10.33
2017-11-07T15:17:13.572Z,10.50
2017-11-07T15:19:41.820Z,12.07
2017-11-07T15:22:09.298Z,11.90
2017-11-07T15:24:36.751Z,10.93
2017-11-07T15:27:04.223Z,12.33
2017-11-07T15:29:31.763Z,12.67
2017-11-07T15:31:59.315Z,11.40
2017-11-07T15:34:26.796Z,15.00
2017-11-07T15:36:55.058Z,15.90
2017-11-07T15:39:22.724Z,15.40
2017-11-07T15:41:51.084Z,12.17
2017-11-07T15:44:20.064Z,13.87
2017-11-07T15:46:47.549Z,13.67
2017-11-07T15:49:15.132Z,13.07
2017-11-07T15:51:42.604Z,12.33
2017-11-07T15:54:10.076Z,12.60
2017-11-07T15:56:37.588Z,13.70
2017-11-07T15:59:05.824Z,12.60
2017-11-07T16:01:33.392Z,13.47
2017-11-07T16:04:00.873Z,13.33
2017-11-07T16:06:29.101Z,12.70
2017-11-07T16:08:56.592Z,14.20
2017-11-07T16:11:24.064Z,16.27
2017-11-07T16:13:52.287Z,17.37
2017-11-07T16:16:19.792Z,19.97
2017-11-07T16:18:47.257Z,22.17
2017-11-07T16:21:15.488Z,23.43
2017-11-07T16:23:42.967Z,19.57
2017-11-07T16:26:10.431Z,22.30
2017-11-07T16:28:37.947Z,20.83
2017-11-07T16:31:05.418Z,22.87
2017-11-07T16:33:32.901Z,22.80
2017-11-07T16:36:00.360Z,21.87
2017-11-07T16:38:27.910Z,23.47
2017-11-07T16:40:55.472Z,23.00
2017-11-07T16:43:22.946Z,24.77
2017-11-07T16:45:51.204Z,24.07
2017-11-07T16:48:19.623Z,25.87
2017-11-07T16:50:47.091Z,25.60
2017-11-07T16:53:14.600Z,27.53
2017-11-07T16:55:42.081Z,27.90
2017-11-07T16:58:10.327Z,27.03
2017-11-07T17:00:37.845Z,25.67
2017-11-07T17:03:05.347Z,27.43
2017-11-07T17:05:32.895Z,25.40
2017-11-07T17:08:00.351Z,28.17
2017-11-07T17:10:27.925Z,25.77
2017-11-07T17:12:55.402Z,23.93
2017-11-07T17:15:23.623Z,23.87
2017-11-07T17:17:51.103Z,25.10
2017-11-07T17:20:19.336Z,26.90
2017-11-07T17:22:46.835Z,25.40
2017-11-07T17:25:15.168Z,26.10
2017-11-07T17:27:42.632Z,25.03
2017-11-07T17:30:10.251Z,24.67
2017-11-07T17:32:38.488Z,23.57
2017-11-07T17:35:06.065Z,23.00
2017-11-07T17:37:33.628Z,21.90
2017-11-07T17:40:02.611Z,20.90
2017-11-07T17:42:30.072Z,20.33
2017-11-07T17:44:58.312Z,19.60
2017-11-07T17:47:25.803Z,21.33
2017-11-07T17:49:54.045Z,19.10
2017-11-07T17:52:21.510Z,19.10
2017-11-07T17:54:48.992Z,20.40
2017-11-07T17:57:16.448Z,22.83
2017-11-07T17:59:43.907Z,26.70
2017-11-07T18:02:12.155Z,24.90
2017-11-07T18:04:39.949Z,31.80
2017-11-07T18:07:07.403Z,32.70
2017-11-07T18:09:36.389Z,35.60
2017-11-07T18:12:03.860Z,44.07
2017-11-07T18:14:31.407Z,45.00
2017-11-07T18:16:59.644Z,42.23
2017-11-07T18:19:27.107Z,39.50
2017-11-07T18:21:54.601Z,42.70
2017-11-07T18:24:22.852Z,44.90
2017-11-07T18:26:50.332Z,45.57
2017-11-07T18:29:18.580Z,41.17
2017-11-07T18:31:46.061Z,41.37
2017-11-07T18:34:15.036Z,36.63
2017-11-07T18:36:42.499Z,35.50
2017-11-07T18:39:10.068Z,34.80
2017-11-07T18:41:38.298Z,35.53
2017-11-07T18:44:05.755Z,36.23
2017-11-07T18:46:33.259Z,33.77
2017-11-07T18:49:01.492Z,33.23
2017-11-07T18:51:28.960Z,36.23
2017-11-07T18:53:56.448Z,42.30
2017-11-07T18:56:24.681Z,34.83
2017-11-07T18:58:52.187Z,38.33
2017-11-07T19:01:19.749Z,44.50
2017-11-07T19:03:47.300Z,39.10
2017-11-07T19:06:14.881Z,36.93
2017-11-07T19:08:43.129Z,39.40
2017-11-07T19:11:12.122Z,39.60
2017-11-07T19:13:39.683Z,41.07
2017-11-07T19:16:08.664Z,40.00
2017-11-07T19:18:36.141Z,47.57
2017-11-07T19:21:04.371Z,43.17
2017-11-07T19:23:31.859Z,42.93
2017-11-07T19:25:59.328Z,46.17
2017-11-07T19:28:26.799Z,44.10
2017-11-07T19:30:55.059Z,41.23
2017-11-07T19:33:24.040Z,40.80
2017-11-07T19:35:51.508Z,43.77
2017-11-07T19:38:20.489Z,39.80
2017-11-07T19:40:49.475Z,47.83
2017-11-07T19:43:16.958Z,46.30
2017-11-07T19:45:45.193Z,42.17
2017-11-07T19:48:12.678Z,38.77
2017-11-07T19:50:40.911Z,42.23
2017-11-07T19:53:08.379Z,37.50
2017-11-07T19:55:35.863Z,45.50
2017-11-07T19:58:04.099Z,39.83
2017-11-07T20:00:31.559Z,42.00
2017-11-07T20:02:59.792Z,52.55
2017-11-07T20:05:28.027Z,43.33
2017-11-07T20:07:55.500Z,39.87
2017-11-07T20:10:23.729Z,39.40
2017-11-07T20:12:51.205Z,38.77
2017-11-07T20:15:18.687Z,43.90
2017-11-07T20:17:46.156Z,42.43
2017-11-07T20:20:14.420Z,47.90
2017-11-07T20:22:43.424Z,41.83
2017-11-07T20:25:11.687Z,40.23
2017-11-07T20:27:39.166Z,39.30
2017-11-07T20:30:07.437Z,44.03
2017-11-07T20:32:36.487Z,41.20
2017-11-07T20:35:03.984Z,43.33
2017-11-07T20:37:32.215Z,40.20
2017-11-07T20:39:59.723Z,39.57
2017-11-07T20:42:27.996Z,36.03
2017-11-07T20:44:56.226Z,45.40
2017-11-07T20:47:23.696Z,44.50
2017-11-07T20:49:51.612Z,40.73
2017-11-07T20:52:20.084Z,44.00
2017-11-07T20:54:48.418Z,46.77
2017-11-07T20:57:16.795Z,57.00
2017-11-07T20:59:46.808Z,33.50
2017-11-07T21:02:15.975Z,40.63
2017-11-07T21:04:43.460Z,43.93
2017-11-07T21:07:10.989Z,33.50
2017-11-07T21:09:38.571Z,33.90
2017-11-07T21:12:06.064Z,30.03
2017-11-07T21:14:33.548Z,33.03
2017-11-07T21:17:02.062Z,33.37
2017-11-07T21:19:32.134Z,34.00
2017-11-07T21:22:00.381Z,32.83
2017-11-07T21:24:27.948Z,26.47
2017-11-07T21:26:55.435Z,38.50
2017-11-07T21:29:23.676Z,34.70
2017-11-07T21:31:51.156Z,33.80
2017-11-07T21:34:22.324Z,30.93
2017-11-07T21:36:49.856Z,26.90
2017-11-07T21:39:18.084Z,37.47
2017-11-07T21:41:45.683Z,30.10
2017-11-07T21:44:14.651Z,28.70
2017-11-07T21:46:42.106Z,29.27
2017-11-07T21:49:09.586Z,26.30
2017-11-07T21:51:37.055Z,30.10
2017-11-07T21:54:04.583Z,38.23
2017-11-07T21:56:32.058Z,36.90
2017-11-07T21:58:59.579Z,34.63
2017-11-07T22:01:27.053Z,35.63
2017-11-07T22:03:54.531Z,26.30
2017-11-07T22:06:22.712Z,33.37
2017-11-07T22:08:50.936Z,25.83
2017-11-07T22:11:18.436Z,34.00
2017-11-07T22:13:45.993Z,28.13
2017-11-07T22:16:13.551Z,29.87
2017-11-07T22:18:41.795Z,27.50
2017-11-07T22:21:09.284Z,29.13
2017-11-07T22:23:41.488Z,26.30
2017-11-07T22:26:09.062Z,25.50
2017-11-07T22:28:36.527Z,28.47
2017-11-07T22:31:04.020Z,25.13
2017-11-07T22:33:31.491Z,28.33
2017-11-07T22:35:59.755Z,28.80
2017-11-07T22:38:27.231Z,28.30
2017-11-07T22:40:55.473Z,29.30
2017-11-07T22:43:22.940Z,27.67
2017-11-07T22:45:50.420Z,24.23
2017-11-07T22:48:18.659Z,25.13
2017-11-07T22:50:46.115Z,22.90
2017-11-07T22:53:13.902Z,24.57
2017-11-07T22:55:41.370Z,24.83
2017-11-07T22:58:09.608Z,29.70
2017-11-07T23:00:37.084Z,31.33
2017-11-07T23:03:05.328Z,27.13
2017-11-07T23:05:32.816Z,28.00
2017-11-07T23:08:01.216Z,21.00
2017-11-07T23:10:29.457Z,23.87
2017-11-07T23:12:58.716Z,23.93
2017-11-07T23:15:26.219Z,21.53
2017-11-07T23:17:53.686Z,22.13
2017-11-07T23:20:21.919Z,22.23
2017-11-07T23:22:49.399Z,21.03
2017-11-07T23:25:16.887Z,24.53
2017-11-07T23:27:45.119Z,25.17
2017-11-07T23:30:12.624Z,22.00
2017-11-07T23:32:40.851Z,26.77
2017-11-07T23:35:08.380Z,25.70
2017-11-07T23:37:35.856Z,23.13
2017-11-07T23:40:03.323Z,23.07
2017-11-07T23:42:31.663Z,25.30
2017-11-07T23:44:59.139Z,23.07
2017-11-07T23:47:26.640Z,24.77
2017-11-07T23:49:54.103Z,22.20
2017-11-07T23:52:22.350Z,24.53
2017-11-07T23:54:49.814Z,23.03
2017-11-07T23:57:17.613Z,21.13
2017-11-07T23:59:45.859Z,21.37
